createdAt,value
2023-04-04T00:04:30.011Z,45.29
2023-04-04T00:09:31.902Z,44.98
2023-04-04T00:14:33.819Z,45.68
2023-04-04T00:19:35.611Z,45.52
2023-04-04T00:24:37.695Z,45.62
2023-04-04T00:29:39.527Z,45.31
2023-04-04T00:34:41.589Z,45.28
2023-04-04T00:39:43.456Z,45.54
2023-04-04T00:44:45.605Z,45.49
2023-04-04T00:49:48.103Z,45.63
2023-04-04T00:54:50.176Z,46.16
2023-04-04T00:59:52.394Z,46.02
2023-04-04T01:04:54.664Z,46.26
2023-04-04T01:09:58.252Z,46.02
2023-04-04T01:15:00.451Z,46.44
2023-04-04T01:20:15.882Z,46.56
2023-04-04T01:25:30.304Z,46.20
2023-04-04T01:30:37.320Z,46.42
2023-04-04T01:35:53.418Z,46.41
2023-04-04T01:41:03.971Z,46.78
2023-04-04T01:46:08.170Z,46.90
2023-04-04T01:51:10.497Z,46.87
2023-04-04T01:56:13.264Z,46.43
2023-04-04T02:01:16.059Z,46.90
2023-04-04T02:06:17.908Z,46.97
2023-04-04T02:11:23.077Z,46.62
2023-04-04T02:16:25.801Z,46.75
2023-04-04T02:21:28.132Z,47.14
2023-04-04T02:26:30.667Z,46.72
2023-04-04T02:31:34.351Z,47.20
2023-04-04T02:36:36.832Z,46.92
2023-04-04T02:41:39.319Z,46.69
2023-04-04T02:46:42.153Z,47.13
2023-04-04T02:51:48.140Z,47.44
2023-04-04T02:56:50.195Z,46.69
2023-04-04T03:01:52.129Z,46.73
2023-04-04T03:06:54.735Z,47.93
2023-04-04T03:11:57.306Z,48.26
2023-04-04T03:16:59.694Z,48.54
2023-04-04T03:22:01.657Z,49.04
2023-04-04T03:27:07.490Z,48.51
2023-04-04T03:32:09.366Z,48.88
2023-04-04T03:37:11.433Z,49.34
2023-04-04T03:42:13.414Z,49.32
2023-04-04T03:47:15.511Z,49.46
2023-04-04T03:52:17.548Z,49.00
2023-04-04T03:57:19.757Z,49.04
2023-04-04T04:02:21.667Z,49.45
2023-04-04T04:07:23.656Z,49.34
2023-04-04T04:12:26.397Z,49.70
2023-04-04T04:17:28.289Z,49.65
2023-04-04T04:22:30.424Z,49.41
2023-04-04T04:27:32.327Z,49.64
2023-04-04T04:32:35.157Z,49.22
2023-04-04T04:37:37.286Z,49.65
2023-04-04T04:42:47.346Z,49.76
2023-04-04T04:47:53.086Z,49.52
2023-04-04T04:52:56.015Z,50.02
2023-04-04T04:57:57.906Z,49.74
2023-04-04T05:03:02.264Z,50.10
2023-04-04T05:08:12.920Z,50.25
2023-04-04T05:13:26.046Z,50.13
2023-04-04T05:18:28.535Z,49.85
2023-04-04T05:23:31.880Z,49.83
2023-04-04T05:28:34.818Z,49.49
2023-04-04T05:33:39.530Z,48.92
2023-04-04T05:39:10.579Z,48.23
2023-04-04T05:44:19.978Z,48.67
2023-04-04T05:49:22.258Z,48.72
2023-04-04T05:54:31.092Z,48.21
2023-04-04T05:59:36.809Z,48.54
2023-04-04T06:04:41.175Z,48.42
2023-04-04T06:09:45.629Z,48.09
2023-04-04T06:14:47.652Z,48.57
2023-04-04T06:19:55.823Z,48.08
2023-04-04T06:24:58.322Z,48.12
2023-04-04T06:30:02.999Z,47.82
2023-04-04T06:35:05.270Z,48.03
2023-04-04T06:40:16.353Z,48.12
2023-04-04T06:45:18.933Z,47.38
2023-04-04T06:50:23.063Z,47.33
2023-04-04T06:55:25.045Z,47.59
2023-04-04T07:00:27.151Z,47.40
2023-04-04T07:05:29.281Z,47.25
2023-04-04T07:10:31.235Z,47.27
2023-04-04T07:15:33.123Z,46.80
2023-04-04T07:20:35.275Z,46.41
2023-04-04T07:25:38.253Z,46.58
2023-04-04T07:30:40.458Z,46.44
2023-04-04T07:35:42.563Z,46.18
2023-04-04T07:40:44.450Z,46.76
2023-04-04T07:45:46.350Z,46.30
2023-04-04T07:50:48.283Z,46.14
2023-04-04T07:55:50.093Z,46.36
2023-04-04T08:00:51.895Z,46.13
2023-04-04T08:05:53.737Z,46.17
2023-04-04T08:10:55.722Z,45.86
2023-04-04T08:15:57.673Z,45.75
2023-04-04T08:20:59.514Z,45.02
2023-04-04T08:26:01.316Z,44.63
2023-04-04T08:31:04.404Z,44.64
2023-04-04T08:36:06.455Z,44.11
2023-04-04T08:41:08.841Z,43.39
2023-04-04T08:46:12.807Z,43.18
2023-04-04T08:51:17.597Z,42.13
2023-04-04T08:56:19.710Z,42.21
2023-04-04T09:01:23.135Z,41.42
2023-04-04T09:06:26.678Z,41.07
2023-04-04T09:11:31.839Z,40.80
2023-04-04T09:16:33.763Z,40.19
2023-04-04T09:21:36.021Z,39.91
2023-04-04T09:26:53.729Z,39.62
2023-04-04T09:31:55.796Z,39.44
2023-04-04T09:36:58.769Z,39.56
2023-04-04T09:42:01.586Z,39.42
2023-04-04T09:52:37.644Z,38.97
2023-04-04T09:57:41.773Z,38.53
2023-04-04T10:02:48.194Z,38.09
2023-04-04T10:07:50.123Z,38.62
2023-04-04T10:12:52.992Z,38.24
2023-04-04T10:17:55.648Z,37.97
2023-04-04T10:22:58.737Z,37.95
2023-04-04T10:28:00.702Z,36.99
2023-04-04T10:33:09.018Z,36.64
2023-04-04T10:38:12.201Z,36.05
2023-04-04T10:43:16.598Z,36.34
2023-04-04T10:48:19.951Z,35.90
2023-04-04T10:53:23.819Z,36.06
2023-04-04T10:58:26.548Z,35.14
2023-04-04T11:03:28.454Z,34.98
2023-04-04T11:08:35.607Z,35.19
2023-04-04T11:13:37.775Z,35.13
2023-04-04T11:18:40.340Z,34.81
2023-04-04T11:23:48.686Z,34.08
2023-04-04T11:28:50.584Z,35.16
2023-04-04T11:34:09.504Z,34.63
2023-04-04T11:39:30.993Z,34.50
2023-04-04T11:44:40.001Z,34.18
2023-04-04T11:49:43.177Z,34.10
2023-04-04T11:54:46.996Z,34.25
2023-04-04T11:59:51.142Z,33.64
2023-04-04T12:04:53.518Z,33.66
2023-04-04T12:09:57.029Z,33.75
2023-04-04T12:15:06.790Z,33.75
2023-04-04T12:20:23.578Z,33.02
2023-04-04T12:25:28.583Z,32.67
2023-04-04T12:30:30.771Z,32.09
2023-04-04T12:35:33.130Z,32.43
2023-04-04T12:40:37.532Z,32.09
2023-04-04T12:45:40.526Z,32.60
2023-04-04T12:50:57.840Z,32.60
2023-04-04T12:56:04.902Z,32.18
2023-04-04T13:01:07.207Z,32.34
2023-04-04T13:06:32.766Z,32.21
2023-04-04T13:12:03.744Z,32.12
2023-04-04T13:17:06.437Z,32.60
2023-04-04T13:22:09.514Z,31.93
2023-04-04T13:27:11.377Z,31.70
2023-04-04T13:32:13.173Z,31.91
2023-04-04T13:37:15.016Z,31.84
2023-04-04T13:42:16.832Z,31.32
2023-04-04T13:47:18.704Z,31.35
2023-04-04T13:52:20.698Z,31.42
2023-04-04T13:57:22.543Z,31.77
2023-04-04T14:02:25.817Z,31.66
2023-04-04T14:07:27.646Z,32.65
2023-04-04T14:12:29.453Z,32.21
2023-04-04T14:17:31.580Z,32.36
2023-04-04T14:22:34.193Z,32.06
2023-04-04T14:27:36.174Z,32.22
2023-04-04T14:32:38.021Z,31.91
2023-04-04T14:37:39.863Z,32.17
2023-04-04T14:42:41.842Z,32.08
2023-04-04T14:47:43.722Z,31.99
2023-04-04T14:52:47.880Z,31.93
2023-04-04T15:02:56.080Z,31.94
2023-04-04T15:07:57.907Z,32.48
2023-04-04T15:12:59.708Z,32.09
2023-04-04T15:18:02.880Z,32.06
2023-04-04T15:23:05.160Z,31.85
2023-04-04T15:28:06.978Z,31.90
2023-04-04T15:33:09.279Z,30.75
2023-04-04T15:38:11.158Z,31.22
2023-04-04T15:43:12.963Z,31.57
2023-04-04T15:48:14.764Z,31.64
2023-04-04T15:53:17.902Z,31.85
2023-04-04T15:58:19.777Z,31.57
2023-04-04T16:03:21.833Z,31.82
2023-04-04T16:08:23.832Z,31.80
2023-04-04T16:13:25.868Z,31.50
2023-04-04T16:18:28.130Z,31.96
2023-04-04T16:23:31.678Z,31.46
2023-04-04T16:28:33.469Z,31.74
2023-04-04T16:33:35.426Z,32.00
2023-04-04T16:38:37.373Z,32.24
2023-04-04T16:43:39.361Z,32.05
2023-04-04T16:48:41.306Z,32.12
2023-04-04T16:53:43.103Z,32.04
2023-04-04T16:58:45.824Z,32.10
2023-04-04T17:03:47.741Z,31.94
2023-04-04T17:08:49.994Z,32.21
2023-04-04T17:13:51.816Z,32.58
2023-04-04T17:18:53.832Z,32.22
2023-04-04T17:23:55.840Z,32.76
2023-04-04T17:28:57.637Z,32.52
2023-04-04T17:33:59.492Z,32.92
2023-04-04T17:39:01.444Z,32.86
2023-04-04T17:44:03.662Z,32.86
2023-04-04T17:49:07.042Z,32.95
2023-04-04T17:54:08.977Z,33.12
2023-04-04T17:59:12.833Z,33.28
2023-04-04T18:04:14.717Z,33.47
2023-04-04T18:09:18.420Z,33.35
2023-04-04T18:14:20.305Z,33.40
2023-04-04T18:19:22.150Z,33.51
2023-04-04T18:24:26.045Z,33.46
2023-04-04T18:29:30.836Z,33.62
2023-04-04T18:34:33.184Z,33.79
2023-04-04T18:39:35.075Z,33.54
2023-04-04T18:44:36.974Z,33.45
2023-04-04T18:49:38.808Z,33.68
2023-04-04T18:54:40.922Z,33.79
2023-04-04T18:59:42.752Z,33.70
2023-04-04T19:04:46.869Z,33.93
2023-04-04T19:09:50.545Z,33.65
2023-04-04T19:14:52.361Z,33.66
2023-04-04T19:19:54.197Z,33.83
2023-04-04T19:24:56.185Z,33.67
2023-04-04T19:29:57.987Z,33.68
2023-04-04T19:34:59.807Z,33.87
2023-04-04T19:40:01.794Z,34.02
2023-04-04T19:45:12.433Z,34.10
2023-04-04T19:50:34.702Z,34.31
2023-04-04T19:55:40.417Z,34.57
2023-04-04T20:00:42.599Z,34.54
2023-04-04T20:05:47.583Z,34.70
2023-04-04T20:10:51.477Z,34.65
2023-04-04T20:16:01.619Z,34.52
2023-04-04T20:21:24.369Z,35.15
2023-04-04T20:26:35.421Z,34.89
2023-04-04T20:31:51.484Z,35.11
2023-04-04T20:36:53.704Z,35.15
2023-04-04T20:41:55.990Z,35.30
2023-04-04T20:46:58.102Z,35.39
2023-04-04T20:51:59.993Z,36.08
2023-04-04T20:57:02.271Z,36.43
2023-04-04T21:02:23.470Z,36.62
2023-04-04T21:07:35.930Z,36.56
2023-04-04T21:12:37.728Z,36.85
2023-04-04T21:17:40.022Z,36.87
2023-04-04T21:22:47.058Z,37.12
2023-04-04T21:27:54.516Z,37.03
2023-04-04T21:32:56.393Z,36.87
2023-04-04T21:37:58.255Z,37.05
2023-04-04T21:43:00.072Z,37.37
2023-04-04T21:48:01.979Z,36.80
2023-04-04T21:53:03.827Z,36.53
2023-04-04T21:58:05.628Z,37.68
2023-04-04T22:03:07.578Z,37.29
2023-04-04T22:08:09.393Z,37.43
2023-04-04T22:13:14.906Z,37.19
2023-04-04T22:18:17.357Z,37.98
2023-04-04T22:23:21.769Z,38.67
2023-04-04T22:28:25.094Z,38.82
2023-04-04T22:33:29.930Z,38.42
2023-04-04T22:38:31.830Z,38.44
2023-04-04T22:43:33.803Z,38.84
2023-04-04T22:48:41.250Z,38.79
2023-04-04T22:53:44.441Z,38.47
2023-04-04T22:58:46.529Z,38.39
2023-04-04T23:03:48.416Z,38.81
2023-04-04T23:08:50.589Z,38.60
2023-04-04T23:13:53.999Z,38.83
2023-04-04T23:18:55.846Z,39.04
2023-04-04T23:23:58.424Z,39.04
2023-04-04T23:29:01.590Z,39.41
2023-04-04T23:34:03.465Z,39.19
2023-04-04T23:39:05.489Z,39.78
2023-04-04T23:44:07.395Z,39.50
2023-04-04T23:49:09.644Z,39.19
2023-04-04T23:54:13.038Z,40.14
2023-04-04T23:59:14.872Z,39.81
